createdAt,value
2022-11-10T00:02:20.567Z,96164.00
2022-11-10T00:05:06.147Z,96172.34
2022-11-10T00:07:51.624Z,96175.13
2022-11-10T00:10:57.133Z,96175.25
2022-11-10T00:14:01.231Z,96180.66
2022-11-10T00:17:01.902Z,96171.34
2022-11-10T00:19:47.625Z,96178.06
2022-11-10T00:22:37.869Z,96180.66
2022-11-10T00:25:24.473Z,96180.84
2022-11-10T00:28:10.791Z,96191.28
2022-11-10T00:30:56.535Z,96187.22
2022-11-10T00:33:43.920Z,96199.94
2022-11-10T00:36:29.904Z,96198.97
2022-11-10T00:39:15.663Z,96204.19
2022-11-10T00:42:01.008Z,96208.13
2022-11-10T00:44:46.845Z,96213.69
2022-11-10T00:47:32.589Z,96206.81
2022-11-10T00:50:18.116Z,96209.78
2022-11-10T00:53:04.062Z,96214.03
2022-11-10T00:55:49.761Z,96214.34
2022-11-10T00:58:35.274Z,96205.84
2022-11-10T01:01:22.381Z,96215.31
2022-11-10T01:04:08.093Z,96224.13
2022-11-10T01:06:53.244Z,96222.31
2022-11-10T01:09:38.763Z,96235.84
2022-11-10T01:12:24.413Z,96246.63
2022-11-10T01:15:10.193Z,96243.41
2022-11-10T01:17:56.608Z,96252.41
2022-11-10T01:20:42.155Z,96247.00
2022-11-10T01:23:27.777Z,96245.31
2022-11-10T01:26:13.822Z,96254.97
2022-11-10T01:28:58.964Z,96248.09
2022-11-10T01:31:44.413Z,96253.06
2022-11-10T01:34:29.802Z,96255.78
2022-11-10T01:37:15.129Z,96255.78
2022-11-10T01:40:00.730Z,96249.25
2022-11-10T01:42:55.520Z,96255.44
2022-11-10T01:45:45.378Z,96253.81
2022-11-10T01:48:59.155Z,96251.84
2022-11-10T01:51:54.926Z,96246.75
2022-11-10T01:54:50.044Z,96251.00
2022-11-10T01:57:37.154Z,96254.09
2022-11-10T02:00:23.505Z,96251.63
2022-11-10T02:03:41.690Z,96248.56
2022-11-10T02:06:31.585Z,96255.41
2022-11-10T02:09:17.758Z,96266.16
2022-11-10T02:12:03.220Z,96274.97
2022-11-10T02:14:48.974Z,96276.78
2022-11-10T02:17:34.674Z,96280.53
2022-11-10T02:20:21.579Z,96284.13
2022-11-10T02:23:12.935Z,96290.34
2022-11-10T02:25:58.800Z,96295.19
2022-11-10T02:28:43.843Z,96302.84
2022-11-10T02:31:29.325Z,96300.56
2022-11-10T02:34:15.032Z,96307.41
2022-11-10T02:37:00.512Z,96319.50
2022-11-10T02:39:45.789Z,96318.38
2022-11-10T02:42:31.119Z,96318.88
2022-11-10T02:45:16.556Z,96322.94
2022-11-10T02:48:01.938Z,96327.00
2022-11-10T02:50:47.536Z,96328.50
2022-11-10T02:53:32.894Z,96327.84
2022-11-10T02:56:18.325Z,96336.31
2022-11-10T02:59:04.924Z,96338.94
2022-11-10T03:01:49.998Z,96334.03
2022-11-10T03:04:35.750Z,96330.75
2022-11-10T03:07:21.187Z,96341.38
2022-11-10T03:10:07.223Z,96337.63
2022-11-10T03:13:00.245Z,96333.84
2022-11-10T03:15:47.997Z,96340.50
2022-11-10T03:18:33.371Z,96349.31
2022-11-10T03:21:18.719Z,96358.94
2022-11-10T03:24:04.617Z,96358.91
2022-11-10T03:26:50.124Z,96366.16
2022-11-10T03:29:35.556Z,96373.47
2022-11-10T03:32:20.822Z,96358.81
2022-11-10T03:35:06.548Z,96371.66
2022-11-10T03:37:51.952Z,96378.97
2022-11-10T03:40:57.000Z,96377.47
2022-11-10T03:43:42.292Z,96385.13
2022-11-10T03:46:27.658Z,96389.16
2022-11-10T03:49:12.897Z,96386.03
2022-11-10T03:51:58.249Z,96402.25
2022-11-10T03:54:43.658Z,96406.00
2022-11-10T03:57:29.158Z,96400.09
2022-11-10T04:00:14.999Z,96394.88
2022-11-10T04:03:00.395Z,96407.41
2022-11-10T04:06:04.084Z,96408.47
2022-11-10T04:09:01.235Z,96407.09
2022-11-10T04:12:05.243Z,96414.41
2022-11-10T04:15:09.704Z,96411.88
2022-11-10T04:17:55.362Z,96417.47
2022-11-10T04:20:40.962Z,96426.66
2022-11-10T04:23:34.961Z,96435.78
2022-11-10T04:26:29.519Z,96435.09
2022-11-10T04:29:19.489Z,96443.06
2022-11-10T04:32:04.807Z,96446.91
2022-11-10T04:34:50.505Z,96448.28
2022-11-10T04:37:35.788Z,96447.97
2022-11-10T04:40:21.609Z,96447.16
2022-11-10T04:43:06.919Z,96451.56
2022-11-10T04:45:52.647Z,96457.94
2022-11-10T04:48:38.180Z,96465.53
2022-11-10T04:51:28.700Z,96464.84
2022-11-10T04:54:14.003Z,96475.03
2022-11-10T04:56:59.287Z,96477.25
2022-11-10T04:59:44.726Z,96477.25
2022-11-10T05:02:30.131Z,96482.78
2022-11-10T05:05:15.581Z,96492.75
2022-11-10T05:08:01.724Z,96499.06
2022-11-10T05:10:47.207Z,96496.75
2022-11-10T05:13:32.956Z,96497.72
2022-11-10T05:16:18.097Z,96497.72
2022-11-10T05:19:04.122Z,96503.06
2022-11-10T05:21:49.606Z,96507.72
2022-11-10T05:24:34.747Z,96508.69
2022-11-10T05:27:20.145Z,96513.25
2022-11-10T05:30:06.226Z,96521.88
2022-11-10T05:32:51.460Z,96523.38
2022-11-10T05:35:37.177Z,96528.47
2022-11-10T05:38:22.537Z,96526.50
2022-11-10T05:41:07.984Z,96531.88
2022-11-10T05:43:53.297Z,96534.47
2022-11-10T05:46:38.686Z,96528.59
2022-11-10T05:49:24.151Z,96542.03
2022-11-10T05:52:09.443Z,96533.00
2022-11-10T05:54:55.566Z,96538.78
2022-11-10T05:57:45.421Z,96548.09
2022-11-10T06:00:31.848Z,96556.72
2022-11-10T06:03:20.235Z,96564.69
2022-11-10T06:06:05.855Z,96570.47
2022-11-10T06:08:52.120Z,96572.38
2022-11-10T06:11:37.491Z,96573.34
2022-11-10T06:14:22.574Z,96575.25
2022-11-10T06:17:07.902Z,96582.28
2022-11-10T06:19:53.606Z,96580.63
2022-11-10T06:22:39.174Z,96596.38
2022-11-10T06:25:24.547Z,96602.69
2022-11-10T06:28:10.922Z,96596.66
2022-11-10T06:30:59.116Z,96609.13
2022-11-10T06:33:44.708Z,96613.38
2022-11-10T06:36:30.070Z,96624.50
2022-11-10T06:39:15.430Z,96629.56
2022-11-10T06:42:01.051Z,96646.41
2022-11-10T06:44:46.275Z,96651.47
2022-11-10T06:47:32.164Z,96666.44
2022-11-10T06:50:17.645Z,96669.31
2022-11-10T06:53:03.389Z,96670.13
2022-11-10T06:55:48.802Z,96679.59
2022-11-10T06:58:34.147Z,96686.59
2022-11-10T07:01:22.615Z,96692.88
2022-11-10T07:04:23.567Z,96687.25
2022-11-10T07:07:09.150Z,96688.91
2022-11-10T07:09:54.644Z,96700.28
2022-11-10T07:12:40.108Z,96708.53
2022-11-10T07:15:25.454Z,96719.91
2022-11-10T07:18:11.078Z,96727.47
2022-11-10T07:20:56.913Z,96735.84
2022-11-10T07:23:42.351Z,96736.50
2022-11-10T07:26:28.328Z,96746.25
2022-11-10T07:29:13.413Z,96743.34
2022-11-10T07:31:58.786Z,96753.25
2022-11-10T07:34:44.063Z,96754.34
2022-11-10T07:37:29.516Z,96757.75
2022-11-10T07:40:14.797Z,96764.19
2022-11-10T07:43:01.053Z,96763.81
2022-11-10T07:45:46.659Z,96769.56
2022-11-10T07:48:31.914Z,96774.34
2022-11-10T07:51:17.946Z,96775.19
2022-11-10T07:54:03.344Z,96776.16
2022-11-10T07:56:49.537Z,96773.53
2022-11-10T07:59:35.085Z,96784.38
2022-11-10T08:02:20.400Z,96799.22
2022-11-10T08:05:06.334Z,96805.94
2022-11-10T08:07:53.119Z,96807.28
2022-11-10T08:10:40.147Z,96803.72
2022-11-10T08:13:25.827Z,96813.06
2022-11-10T08:16:11.267Z,96814.59
2022-11-10T08:18:56.649Z,96812.56
2022-11-10T08:21:41.991Z,96819.44
2022-11-10T08:24:27.371Z,96828.59
2022-11-10T08:27:12.762Z,96828.34
2022-11-10T08:29:58.116Z,96830.38
2022-11-10T08:32:43.419Z,96840.53
2022-11-10T08:35:31.110Z,96844.66
2022-11-10T08:38:22.336Z,96853.88
2022-11-10T08:41:08.520Z,96858.94
2022-11-10T08:43:53.830Z,96851.38
2022-11-10T08:46:42.377Z,96858.38
2022-11-10T08:49:27.332Z,96866.31
2022-11-10T08:52:14.198Z,96875.13
2022-11-10T08:54:59.571Z,96873.19
2022-11-10T08:57:44.935Z,96871.28
2022-11-10T09:00:32.351Z,96872.50
2022-11-10T09:03:22.886Z,96885.00
2022-11-10T09:06:08.615Z,96897.22
2022-11-10T09:08:54.278Z,96899.44
2022-11-10T09:11:39.620Z,96898.44
2022-11-10T09:14:24.919Z,96894.56
2022-11-10T09:17:10.146Z,96906.06
2022-11-10T09:19:55.730Z,96910.19
2022-11-10T09:22:41.381Z,96899.19
2022-11-10T09:25:26.885Z,96901.66
2022-11-10T09:28:14.045Z,96902.50
2022-11-10T09:30:59.932Z,96911.03
2022-11-10T09:33:45.466Z,96910.91
2022-11-10T09:36:30.907Z,96928.94
2022-11-10T09:39:16.318Z,96927.69
2022-11-10T09:42:01.850Z,96922.75
2022-11-10T09:44:58.158Z,96913.53
2022-11-10T09:48:09.081Z,96921.63
2022-11-10T09:50:58.369Z,96935.22
2022-11-10T09:53:50.472Z,96933.31
2022-11-10T09:56:38.063Z,96936.59
2022-11-10T09:59:35.001Z,96937.97
2022-11-10T10:02:38.226Z,96943.75
2022-11-10T10:05:29.573Z,96945.41
2022-11-10T10:08:24.542Z,96947.59
2022-11-10T10:11:38.625Z,96944.00
2022-11-10T10:14:38.799Z,96948.25
2022-11-10T10:17:40.805Z,96949.75
2022-11-10T10:20:42.360Z,96943.94
2022-11-10T10:24:07.192Z,96955.03
2022-11-10T10:26:50.720Z,96956.06
2022-11-10T10:29:49.321Z,96947.56
2022-11-10T10:32:35.208Z,96958.13
2022-11-10T10:35:20.357Z,96952.44
2022-11-10T10:38:22.309Z,96945.25
2022-11-10T10:41:20.920Z,96931.53
2022-11-10T10:44:17.704Z,96938.97
2022-11-10T10:47:04.499Z,96945.16
2022-11-10T10:49:49.753Z,96951.75
2022-11-10T10:52:35.257Z,96951.16
2022-11-10T10:55:20.640Z,96946.69
2022-11-10T10:58:37.199Z,96948.72
2022-11-10T11:01:32.886Z,96934.34
2022-11-10T11:04:36.966Z,96932.94
2022-11-10T11:07:25.102Z,96938.72
2022-11-10T11:10:22.621Z,96941.19
2022-11-10T11:13:20.928Z,96927.53
2022-11-10T11:16:09.206Z,96936.88
2022-11-10T11:18:54.286Z,96940.97
2022-11-10T11:22:05.503Z,96943.31
2022-11-10T11:25:06.288Z,96951.41
2022-11-10T11:28:10.410Z,96948.63
2022-11-10T11:30:58.609Z,96949.22
2022-11-10T11:34:01.386Z,96940.28
2022-11-10T11:37:23.991Z,96956.63
2022-11-10T11:40:23.659Z,96959.31
2022-11-10T11:43:27.987Z,96961.94
2022-11-10T11:46:56.554Z,96967.94
2022-11-10T11:50:03.650Z,96971.16
2022-11-10T11:53:13.066Z,96960.38
2022-11-10T11:56:06.657Z,96968.16
2022-11-10T11:59:15.664Z,96959.78
2022-11-10T12:02:31.680Z,96962.03
2022-11-10T12:05:28.930Z,96961.19
2022-11-10T12:08:31.104Z,96962.03
2022-11-10T12:11:31.751Z,96965.72
2022-11-10T12:14:31.035Z,96970.69
2022-11-10T12:17:36.196Z,96980.44
2022-11-10T12:20:59.187Z,96979.22
2022-11-10T12:24:15.639Z,96970.88
2022-11-10T12:27:20.377Z,96987.34
2022-11-10T12:30:11.303Z,96990.03
2022-11-10T12:33:00.382Z,96993.31
2022-11-10T12:35:46.843Z,96983.50
2022-11-10T12:38:48.111Z,96981.28
2022-11-10T12:41:42.071Z,96984.72
2022-11-10T12:44:43.626Z,96991.13
2022-11-10T12:47:38.351Z,96989.97
2022-11-10T12:50:32.513Z,97005.56
2022-11-10T12:53:29.800Z,97005.88
2022-11-10T12:56:23.672Z,97013.06
2022-11-10T12:59:21.880Z,97013.94
2022-11-10T13:02:25.188Z,97016.19
2022-11-10T13:05:32.124Z,97027.47
2022-11-10T13:08:44.097Z,97029.31
2022-11-10T13:11:36.863Z,97030.72
2022-11-10T13:14:28.998Z,97026.06
2022-11-10T13:17:26.232Z,97025.78
2022-11-10T13:20:40.243Z,97021.63
2022-11-10T13:23:43.821Z,97030.13
2022-11-10T13:26:56.037Z,97037.97
2022-11-10T13:29:47.783Z,97040.13
2022-11-10T13:32:34.455Z,97044.66
2022-11-10T13:35:29.142Z,97057.19
2022-11-10T13:38:46.889Z,97056.59
2022-11-10T13:41:34.739Z,97055.19
2022-11-10T13:44:33.754Z,97056.44
2022-11-10T13:47:19.367Z,97061.00
2022-11-10T13:50:42.207Z,97064.00
2022-11-10T13:53:34.506Z,97061.69
2022-11-10T13:56:35.209Z,97059.50
2022-11-10T13:59:30.734Z,97069.00
2022-11-10T14:02:39.302Z,97070.47
2022-11-10T14:05:30.934Z,97069.97
2022-11-10T14:08:20.717Z,97071.09
2022-11-10T14:11:14.156Z,97080.59
2022-11-10T14:14:13.317Z,97085.28
2022-11-10T14:16:59.642Z,97088.88
2022-11-10T14:19:46.112Z,97092.09
2022-11-10T14:22:44.656Z,97092.34
2022-11-10T14:25:41.249Z,97088.41
2022-11-10T14:28:34.957Z,97101.00
2022-11-10T14:31:25.861Z,97105.66
2022-11-10T14:34:17.038Z,97122.75
2022-11-10T14:37:04.933Z,97123.25
2022-11-10T14:40:00.055Z,97127.25
2022-11-10T14:42:47.504Z,97129.34
2022-11-10T14:45:33.764Z,97127.81
2022-11-10T14:48:23.124Z,97133.44
2022-11-10T14:51:15.208Z,97134.28
2022-11-10T14:54:02.955Z,97129.34
2022-11-10T14:56:49.369Z,97135.13
2022-11-10T14:59:34.950Z,97147.38
2022-11-10T15:02:20.948Z,97147.78
2022-11-10T15:05:09.649Z,97147.22
2022-11-10T15:07:57.278Z,97141.47
2022-11-10T15:10:42.563Z,97133.19
2022-11-10T15:13:28.132Z,97139.53
2022-11-10T15:16:32.049Z,97141.16
2022-11-10T15:19:23.097Z,97138.97
2022-11-10T15:22:32.621Z,97139.50
2022-11-10T15:25:21.729Z,97146.66
2022-11-10T15:28:13.290Z,97134.53
2022-11-10T15:31:20.783Z,97133.03
2022-11-10T15:34:06.460Z,97151.31
2022-11-10T15:37:30.451Z,97148.81
2022-11-10T15:40:33.300Z,97163.19
2022-11-10T15:43:26.469Z,97168.56
2022-11-10T15:46:18.058Z,97168.69
2022-11-10T15:49:04.536Z,97167.16
2022-11-10T15:51:52.309Z,97163.31
2022-11-10T15:54:37.809Z,97159.44
2022-11-10T15:57:23.093Z,97162.75
2022-11-10T16:00:12.272Z,97157.78
2022-11-10T16:02:57.550Z,97160.66
2022-11-10T16:05:42.755Z,97160.09
2022-11-10T16:08:30.696Z,97173.41
2022-11-10T16:11:19.670Z,97179.19
2022-11-10T16:14:05.862Z,97188.53
2022-11-10T16:16:51.065Z,97188.13
2022-11-10T16:19:36.295Z,97203.38
2022-11-10T16:22:21.581Z,97211.16
2022-11-10T16:25:07.332Z,97204.69
2022-11-10T16:27:53.083Z,97212.63
2022-11-10T16:30:38.404Z,97207.16
2022-11-10T16:33:24.746Z,97210.41
2022-11-10T16:36:39.031Z,97206.59
2022-11-10T16:39:25.500Z,97204.00
2022-11-10T16:42:11.002Z,97220.50
2022-11-10T16:44:56.169Z,97225.13
2022-11-10T16:47:43.115Z,97227.06
2022-11-10T16:50:34.006Z,97231.56
2022-11-10T16:53:23.410Z,97232.28
2022-11-10T16:56:14.739Z,97233.94
2022-11-10T16:59:00.245Z,97236.41
2022-11-10T17:01:47.593Z,97225.13
2022-11-10T17:04:32.778Z,97226.22
2022-11-10T17:07:24.482Z,97226.13
2022-11-10T17:10:18.169Z,97224.19
2022-11-10T17:13:03.484Z,97232.28
2022-11-10T17:15:50.585Z,97233.09
2022-11-10T17:18:36.371Z,97233.22
2022-11-10T17:21:22.558Z,97234.19
2022-11-10T17:24:12.638Z,97237.03
2022-11-10T17:26:58.079Z,97236.31
2022-11-10T17:29:44.124Z,97233.34
2022-11-10T17:32:58.021Z,97234.19
2022-11-10T17:36:02.490Z,97239.16
2022-11-10T17:38:47.839Z,97242.72
2022-11-10T17:41:34.105Z,97250.66
2022-11-10T17:44:19.636Z,97250.91
2022-11-10T17:47:05.117Z,97248.41
2022-11-10T17:49:52.044Z,97247.47
2022-11-10T17:52:37.345Z,97244.84
2022-11-10T17:55:34.005Z,97250.22
2022-11-10T17:58:19.967Z,97264.63
2022-11-10T18:01:18.692Z,97270.69
2022-11-10T18:04:04.228Z,97271.66
2022-11-10T18:06:49.894Z,97262.72
2022-11-10T18:09:35.046Z,97261.91
2022-11-10T18:12:25.304Z,97266.06
2022-11-10T18:15:15.015Z,97268.06
2022-11-10T18:18:01.277Z,97269.94
2022-11-10T18:20:46.961Z,97274.44
2022-11-10T18:23:32.886Z,97268.41
2022-11-10T18:26:21.038Z,97267.13
2022-11-10T18:29:06.851Z,97271.25
2022-11-10T18:31:52.166Z,97268.53
2022-11-10T18:34:37.611Z,97270.06
2022-11-10T18:37:23.088Z,97273.75
2022-11-10T18:40:09.023Z,97286.09
2022-11-10T18:43:06.157Z,97288.56
2022-11-10T18:45:54.692Z,97304.09
2022-11-10T18:48:41.246Z,97301.38
2022-11-10T18:51:26.663Z,97299.44
2022-11-10T18:54:12.179Z,97301.47
2022-11-10T18:56:57.784Z,97300.53
2022-11-10T18:59:43.446Z,97308.50
2022-11-10T19:02:28.716Z,97312.28
2022-11-10T19:05:14.294Z,97320.25
2022-11-10T19:07:59.894Z,97324.50
2022-11-10T19:10:45.230Z,97324.75
2022-11-10T19:13:30.670Z,97318.72
2022-11-10T19:16:18.179Z,97327.59
2022-11-10T19:19:03.550Z,97316.22
2022-11-10T19:21:48.736Z,97322.16
2022-11-10T19:24:53.882Z,97318.00
2022-11-10T19:27:39.231Z,97318.72
2022-11-10T19:30:25.835Z,97318.00
2022-11-10T19:33:10.788Z,97314.69
2022-11-10T19:35:56.809Z,97312.94
2022-11-10T19:38:42.988Z,97319.22
2022-11-10T19:41:30.885Z,97312.22
2022-11-10T19:44:16.246Z,97318.38
2022-11-10T19:47:01.573Z,97316.72
2022-11-10T19:49:46.963Z,97312.72
2022-11-10T19:52:32.162Z,97310.22
2022-11-10T19:55:17.916Z,97317.69
2022-11-10T19:58:06.082Z,97323.38
2022-11-10T20:00:51.339Z,97326.06
2022-11-10T20:03:37.226Z,97331.56
2022-11-10T20:06:23.547Z,97336.88
2022-11-10T20:09:08.973Z,97335.94
2022-11-10T20:11:54.427Z,97334.84
2022-11-10T20:14:39.926Z,97339.25
2022-11-10T20:17:25.241Z,97344.59
2022-11-10T20:20:10.846Z,97343.53
2022-11-10T20:23:00.784Z,97343.63
2022-11-10T20:25:46.175Z,97342.94
2022-11-10T20:28:33.755Z,97352.81
2022-11-10T20:31:24.791Z,97358.00
2022-11-10T20:34:09.856Z,97360.84
2022-11-10T20:36:55.576Z,97358.25
2022-11-10T20:39:40.764Z,97369.63
2022-11-10T20:42:26.091Z,97358.63
2022-11-10T20:45:11.818Z,97360.50
2022-11-10T20:47:57.877Z,97366.69
2022-11-10T20:50:43.320Z,97359.56
2022-11-10T20:53:29.626Z,97360.66
2022-11-10T20:56:15.881Z,97362.41
2022-11-10T20:59:01.233Z,97370.38
2022-11-10T21:01:46.623Z,97359.94
2022-11-10T21:04:32.507Z,97365.38
2022-11-10T21:07:18.014Z,97360.88
2022-11-10T21:10:03.983Z,97361.03
2022-11-10T21:12:49.458Z,97366.47
2022-11-10T21:15:38.237Z,97356.31
2022-11-10T21:18:26.489Z,97352.13
2022-11-10T21:21:21.336Z,97342.56
2022-11-10T21:24:08.195Z,97351.91
2022-11-10T21:26:54.216Z,97336.25
2022-11-10T21:29:40.022Z,97332.94
2022-11-10T21:32:25.448Z,97341.03
2022-11-10T21:35:10.902Z,97340.56
2022-11-10T21:37:56.279Z,97347.66
2022-11-10T21:40:41.732Z,97356.19
2022-11-10T21:43:27.044Z,97362.25
2022-11-10T21:46:12.894Z,97366.63
2022-11-10T21:49:03.116Z,97373.50
2022-11-10T21:51:52.526Z,97370.66
2022-11-10T21:54:38.337Z,97370.66
2022-11-10T21:57:24.576Z,97382.25
2022-11-10T22:00:11.649Z,97382.50
2022-11-10T22:03:01.432Z,97381.53
2022-11-10T22:05:47.241Z,97384.06
2022-11-10T22:08:33.696Z,97381.69
2022-11-10T22:11:39.284Z,97379.19
2022-11-10T22:14:43.127Z,97377.53
2022-11-10T22:17:46.824Z,97369.00
2022-11-10T22:20:31.943Z,97364.75
2022-11-10T22:23:17.212Z,97372.56
2022-11-10T22:26:02.490Z,97376.69
2022-11-10T22:28:48.320Z,97379.88
2022-11-10T22:31:33.963Z,97384.28
2022-11-10T22:34:20.007Z,97387.69
2022-11-10T22:37:05.476Z,97400.38
2022-11-10T22:40:09.525Z,97402.88
2022-11-10T22:43:13.376Z,97403.94
2022-11-10T22:45:58.959Z,97413.53
2022-11-10T22:48:44.406Z,97407.38
2022-11-10T22:51:31.212Z,97409.16
2022-11-10T22:54:22.907Z,97403.94
2022-11-10T22:57:08.208Z,97415.19
2022-11-10T22:59:54.063Z,97409.97
2022-11-10T23:02:40.124Z,97413.53
2022-11-10T23:05:25.195Z,97403.09
2022-11-10T23:08:11.516Z,97397.91
2022-11-10T23:11:04.505Z,97400.63
2022-11-10T23:13:50.710Z,97403.09
2022-11-10T23:16:36.094Z,97400.63
2022-11-10T23:19:21.534Z,97396.00
2022-11-10T23:22:06.729Z,97400.97
2022-11-10T23:24:56.917Z,97403.69
2022-11-10T23:27:42.922Z,97396.72
2022-11-10T23:30:28.158Z,97394.34
2022-11-10T23:33:13.502Z,97398.59
2022-11-10T23:35:59.467Z,97408.91
2022-11-10T23:38:45.618Z,97395.28
2022-11-10T23:41:31.297Z,97405.59
2022-11-10T23:44:16.609Z,97399.41
2022-11-10T23:47:01.951Z,97390.78
2022-11-10T23:49:47.510Z,97384.41
2022-11-10T23:52:33.070Z,97375.88
2022-11-10T23:55:18.606Z,97389.03
2022-11-10T23:58:04.422Z,97379.44
